• Join FlightAware (Why Join?)
  • Login
  • US Flag 
07:57AM EDT


 

Airport Tracker/Info


-or-


 

Live Flight TrackerFlight Track Log ✈ GJS3707 ✈ 02-Jun-2013 ✈ KBOI - KORD

Flight Track Log - Related Links

Times and Time Zones

All times are in EDT time to prevent confusion due to time zone crossing. See the GJS3707 flight status page for this flight to view local times or setup timezone preferences in your user account.

Time Position Orientation Groundspeed Altitude Reporting Facility
EDT Latitude Longitude Course Direction KTS MPH feet Rate Location/Type
05:28PM 43.5869 -116.2969 81° East 178 205 5,200  Level Salt Lake Center
05:29PM 43.6458 -116.3053 354° North 219 252 7,000 2,040 Climbing Salt Lake Center
05:30PM 43.7108 -116.2975 North 244 281 9,400 2,040 Climbing Salt Lake Center
05:31PM 43.6622 -115.5294 78° East  Level FlightAware Approximate
05:32PM 43.6801 -115.3528 83° East  Level FlightAware Approximate
05:32PM 43.7511 -116.2033 59° Northeast 288 331 11,200  Level Salt Lake Center
05:33PM 43.7060 -115.1803 81° East  Level FlightAware Approximate
05:33PM 43.7631 -116.0772 82° East 343 395 11,900  Level Salt Lake Center
05:34PM 43.7256 -115.0038 81° East  Level FlightAware Approximate
05:34PM 43.7792 -115.9150 82° East 376 433 14,100  Level Salt Lake Center
05:35PM 43.7936 -115.7714 82° East 390 449 15,600 1,320 Climbing Salt Lake Center
05:36PM 43.8111 -115.5936 82° East 417 480 16,900 1,260 Climbing Salt Lake Center
05:37PM 43.8261 -115.4314 83° East 442 509 18,300 1,320 Climbing Salt Lake Center
05:38PM 43.8417 -115.2650 83° East 454 522 19,700 1,500 Climbing Salt Lake Center
05:39PM 43.8614 -115.0669 82° East 465 535 21,400 1,500 Climbing Salt Lake Center
05:40PM 43.8767 -114.8969 83° East 466 536 22,800 1,080 Climbing Salt Lake Center
05:41PM 43.8944 -114.6936 83° East 477 549 23,700 720 Climbing Salt Lake Center
05:42PM 43.9103 -114.5119 83° East 495 570 24,300 600 Climbing Salt Lake Center
05:43PM 43.9306 -114.2922 83° East 513 590 25,000 720 Climbing Salt Lake Center
05:44PM 43.9458 -114.0997 84° East 524 603 25,800 720 Climbing Salt Lake Center
05:45PM 43.9633 -113.8939 83° East 526 605 26,600 900 Climbing Salt Lake Center
05:46PM 43.9811 -113.6681 84° East 527 606 27,700 960 Climbing Salt Lake Center
05:47PM 43.9953 -113.4750 84° East 526 605 28,600 900 Climbing Salt Lake Center
05:48PM 44.0103 -113.2831 84° East 523 602 29,600 1,020 Climbing Salt Lake Center
05:49PM 44.0289 -113.0606 83° East 521 600 30,700 900 Climbing Salt Lake Center
05:50PM 44.0428 -112.8700 84° East 519 597 31,500 600 Climbing Salt Lake Center
05:51PM 44.0586 -112.6469 84° East 521 600 32,000 480 Climbing Salt Lake Center
05:52PM 44.0711 -112.4531 85° East 527 606 32,500 480 Climbing Salt Lake Center
05:53PM 44.0861 -112.2253 85° East 531 611 33,100 480 Climbing Salt Lake Center
05:54PM 44.0906 -112.0314 88° East 529 609 33,600 480 Climbing Salt Lake Center
05:55PM 44.0917 -111.8367 89° East 530 610 34,100 540 Climbing Salt Lake Center
05:56PM 44.0919 -111.6097 90° East 530 610 34,800 420 Climbing Salt Lake Center
05:57PM 44.0931 -111.4153 89° East 530 610 35,000 60 Climbing Salt Lake Center
05:58PM 44.0936 -111.1903 90° East 525 604 35,000  Level Salt Lake Center
05:59PM 44.0931 -110.9969 90° East 527 606 35,000  Level Salt Lake Center
06:00PM 44.0928 -110.7694 90° East 528 608 35,000  Level Salt Lake Center
06:01PM 44.0922 -110.5744 90° East 530 610 35,000  Level Salt Lake Center
06:02PM 44.0925 -110.3447 90° East 531 611 35,000  Level Salt Lake Center
06:03PM 44.0903 -110.1467 91° East 535 616 35,000  Level Salt Lake Center
06:04PM 44.0875 -109.9175 91° East 533 613 35,000  Level Salt Lake Center
06:05PM 44.0861 -109.7197 90° East 537 618 35,000  Level Salt Lake Center
06:06PM 44.0828 -109.5233 91° East 535 616 35,000  Level Salt Lake Center
06:07PM 44.0803 -109.3103 91° East 527 606 35,000  Level Salt Lake Center
06:09PM 44.0764 -109.0819 91° East 529 609 35,000  Level Salt Lake Center
06:10PM 44.0722 -108.8850 92° East 533 613 35,000  Level Salt Lake Center
06:11PM 44.0678 -108.6597 91° East 526 605 35,000  Level Salt Lake Center
06:12PM 44.0639 -108.4658 92° East 527 606 35,000  Level Salt Lake Center
06:13PM 44.0575 -108.2411 92° East 524 603 35,000  Level Salt Lake Center
06:14PM 44.0531 -108.0500 92° East 520 598 35,000  Level Salt Lake Center
06:15PM 44.0475 -107.8578 92° East 522 601 35,000  Level Salt Lake Center
06:16PM 44.0411 -107.6317 92° East 525 604 35,000  Level Salt Lake Center
06:17PM 44.0347 -107.4383 93° East 526 605 35,000  Level Salt Lake Center
06:18PM 44.0269 -107.2111 93° East 529 609 35,000  Level Salt Lake Center
06:19PM 44.0208 -107.0153 92° East 532 612 35,000  Level Salt Lake Center
06:20PM 44.0125 -106.7864 93° East 532 612 35,000  Level Salt Lake Center
06:21PM 44.0053 -106.5919 93° East 529 609 35,000  Level Salt Lake Center
06:22PM 43.9986 -106.3644 92° East 528 608 35,000  Level Salt Lake Center
06:23PM 44.0019 -106.1656 89° East 535 616 35,000  Level Salt Lake Center
06:24PM 44.0053 -105.9428 89° East 535 616 35,000  Level Salt Lake Center
06:25PM 44.0058 -105.7469 90° East 531 611 35,000  Level Salt Lake Center
06:26PM 44.0056 -105.5519 90° East 527 606 35,000  Level Salt Lake Center
06:27PM 44.0050 -105.3222 90° East 530 610 35,000  Level Salt Lake Center
06:28PM 44.0042 -105.1236 90° East 534 615 35,000  Level Salt Lake Center
06:28PM 44.0025 -105.0589 92° East 535 616 35,000  Level Denver Center
06:29PM 44.0019 -104.8597 90° East 536 617 35,000  Level Denver Center
06:30PM 44.0000 -104.6278 91° East 536 617 35,000  Level Denver Center
06:31PM 43.9989 -104.4283 90° East 537 618 35,000  Level Denver Center
06:32PM 43.9958 -104.2325 91° East 531 611 35,000  Level Denver Center
06:33PM 43.9944 -104.0042 90° East 529 609 35,000  Level Denver Center
06:34PM 43.9911 -103.8050 91° East 534 615 35,000  Level Denver Center
06:35PM 43.9878 -103.5753 91° East 533 613 35,000  Level Denver Center
06:36PM 43.9839 -103.3789 92° East 532 612 35,000  Level Denver Center
06:38PM 43.9803 -103.1803 91° East 534 615 35,000  Level Denver Center
06:39PM 43.9753 -102.9519 92° East 531 611 35,000  Level Denver Center
06:40PM 43.9697 -102.7683 92° East 529 609 35,000  Level Denver Center
06:41PM 43.9608 -102.5208 93° East 535 616 35,000  Level Denver Center
06:42PM 43.9547 -102.3150 92° East 534 615 35,000  Level Denver Center
06:43PM 43.9464 -102.1092 93° East 535 616 35,000  Level Denver Center
06:44PM 43.9381 -101.9036 93° East 536 617 35,000  Level Denver Center
06:45PM 43.9342 -101.7028 91° East 529 609 35,000  Level Denver Center
06:45PM 43.9300 -101.6214 94° East 532 612 35,000  Level Minneapolis Center
06:46PM 43.9208 -101.3744 93° East 534 615 35,000  Level Minneapolis Center
06:47PM 43.9147 -101.1717 92° East 532 612 35,000  Level Minneapolis Center
06:48PM 43.9081 -101.0478 94° East 533 613 35,000  Level Denver Center
06:48PM 43.9044 -100.9672 94° East 533 613 35,000  Level Minneapolis Center
06:49PM 43.8958 -100.7617 93° East 535 616 35,000  Level Minneapolis Center
06:50PM 43.8867 -100.5589 94° East 534 615 35,000  Level Minneapolis Center
06:51PM 43.8775 -100.3558 94° East 532 612 35,000  Level Minneapolis Center
06:52PM 43.8658 -100.1150 94° East 528 608 35,000  Level Minneapolis Center
06:53PM 43.8556 -99.9119 94° East 529 609 35,000  Level Minneapolis Center
06:54PM 43.8444 -99.7075 94° East 533 613 35,000  Level Minneapolis Center
06:56PM 43.8333 -99.5031 94° East 535 616 35,000  Level Minneapolis Center
06:57PM 43.8219 -99.2997 94° East 533 613 35,000  Level Minneapolis Center
06:58PM 43.8072 -99.0544 95° East 535 616 35,000  Level Minneapolis Center
06:59PM 43.7953 -98.8503 95° East 535 616 35,000  Level Minneapolis Center
07:00PM 43.7836 -98.6644 95° East 535 616 35,000  Level Minneapolis Center
07:01PM 43.7700 -98.4606 95° East 535 616 35,000  Level Minneapolis Center
07:02PM 43.7544 -98.2147 95° East 536 617 35,000  Level Minneapolis Center
07:03PM 43.7400 -98.0100 96° East 537 618 35,000  Level Minneapolis Center
07:04PM 43.7253 -97.8050 96° East 539 620 35,000  Level Minneapolis Center
07:05PM 43.7111 -97.6003 95° East 538 619 35,000  Level Minneapolis Center
07:06PM 43.6953 -97.3958 96° East 538 619 35,000  Level Minneapolis Center
07:07PM 43.6781 -97.1519 95° East 536 617 35,000  Level Minneapolis Center
07:08PM 43.6622 -96.9481 96° East 539 620 35,000  Level Minneapolis Center
07:09PM 43.6442 -96.7456 97° East 535 616 35,000  Level Minneapolis Center
07:10PM 43.6150 -96.5450 101° East 538 619 35,000  Level Minneapolis Center
07:11PM 43.5853 -96.3450 102° East 538 619 35,000  Level Minneapolis Center
07:12PM 43.5486 -96.1036 102° East 541 623 35,000  Level Minneapolis Center
07:13PM 43.5181 -95.9019 102° East 542 624 35,000  Level Minneapolis Center
07:14PM 43.4878 -95.7022 102° East 539 620 35,000  Level Minneapolis Center
07:15PM 43.4567 -95.5019 102° East 539 620 35,000  Level Minneapolis Center
07:16PM 43.4242 -95.2997 102° East 543 625 35,000  Level Minneapolis Center
07:17PM 43.3919 -95.0986 102° East 542 624 35,000  Level Minneapolis Center
07:18PM 43.3536 -94.8561 102° East 545 627 35,000  Level Minneapolis Center
07:19PM 43.3194 -94.6564 103° East 541 623 35,000  Level Minneapolis Center
07:20PM 43.2878 -94.4561 102° East 541 623 35,000  Level Minneapolis Center
07:21PM 43.2503 -94.2367 103° East 539 620 35,000  Level Minneapolis Center
07:22PM 43.2175 -94.0336 102° East 546 628 35,000  Level Minneapolis Center
07:23PM 43.1822 -93.8369 104° East 540 621 35,000  Level Minneapolis Center
07:24PM 43.1494 -93.6378 103° East 540 621 35,000  Level Minneapolis Center
07:25PM 43.1150 -93.4408 103° East 539 620 35,000  Level Minneapolis Center
07:26PM 43.0861 -93.2414 101° East 537 618 35,000  Level Minneapolis Center
07:28PM 43.0719 -92.9981 94° East 538 619 35,000 -240 Level Minneapolis Center
07:29PM 43.0589 -92.7986 95° East 535 616 34,600 -780 Descending Minneapolis Center
07:30PM 43.0458 -92.6036 95° East 526 605 33,500 -1,080 Descending Minneapolis Center
07:30PM 43.0364 -92.4942 97° East 501 577 33,000 -360 Descending Chicago Center
07:31PM 43.0217 -92.3050 96° East 504 580 33,000  Level Chicago Center
07:32PM 43.0081 -92.1161 96° East 503 579 33,000 -300 Level Chicago Center
07:33PM 42.9944 -91.9272 96° East 500 575 32,500 -660 Descending Chicago Center
07:34PM 42.9811 -91.7375 95° East 500 575 31,700 -900 Descending Chicago Center
07:35PM 42.9733 -91.6214 95° East 502 578 31,200 -480 Descending Minneapolis Center
07:36PM 42.9569 -91.4292 97° East 502 578 31,000 -420 Descending Minneapolis Center
07:36PM 42.9478 -91.3200 97° East 493 567 30,600 -1,380 Descending Chicago Center
07:37PM 42.9328 -91.1414 96° East 479 551 28,800 -1,740 Descending Chicago Center
07:38PM 42.9192 -90.9642 96° East 474 545 27,100 -1,680 Descending Chicago Center
07:39PM 42.8744 -90.8058 111° Southeast 458 527 25,400 -1,500 Descending Chicago Center
07:40PM 42.8261 -90.6556 114° Southeast 441 507 24,100 -720 Descending Chicago Center
07:41PM 42.7778 -90.5086 114° Southeast 430 495 24,000 -60 Descending Chicago Center
07:43PM 42.7167 -90.3325 115° Southeast 432 497 24,000 -240 Level Chicago Center
07:44PM 42.6917 -90.1708 102° East 453 521 23,600 -1,260 Descending Chicago Center
07:45PM 42.6722 -90.0053 99° East 450 518 21,500 -2,160 Descending Chicago Center
07:46PM 42.6483 -89.8197 100° East 437 503 19,100 -2,160 Descending Chicago Center
07:47PM 42.6292 -89.6622 99° East 426 490 17,100 -2,040 Descending Chicago Center
07:48PM 42.6100 -89.5106 100° East 413 475 15,000 -2,040 Descending Chicago Center
07:49PM 42.5911 -89.3675 100° East 392 451 12,900 -1,500 Descending Chicago Center
07:50PM 42.5731 -89.2281 100° East 379 436 12,000 -480 Descending Chicago Center
07:51PM 42.5453 -89.0664 103° East 379 436 12,000  Level Chicago Center
07:52PM 42.5056 -88.9344 112° Southeast 379 436 12,000 -300 Level Chicago Center
07:53PM 42.4661 -88.8025 112° Southeast 379 436 11,400 -900 Descending Chicago Center
07:54PM 42.4258 -88.6725 113° Southeast 376 433 10,200 -720 Descending Chicago Center
07:55PM 42.3869 -88.5458 113° Southeast 367 422 10,000 -120 Descending Chicago Center
07:56PM 42.3428 -88.3981 112° Southeast 365 420 10,000  Level Chicago Center
07:57PM 42.2864 -88.3006 128° Southeast 366 421 10,000  Level Chicago Center
07:58PM 42.2222 -88.1925 129° Southeast 367 422 10,000 -480 Level Chicago Center
07:59PM 42.1467 -88.0919 135° Southeast 315 362 9,100 -960 Descending Chicago Center
08:00PM 42.1167 -88.0667 148° Southeast 301 346 8,600 -1,320 Descending Chicago TRACON
08:01PM 42.1000 -87.9667 103° East 295 339 7,200 -840 Descending Chicago TRACON
08:02PM 42.0833 -87.8500 101° East 294 338 7,000 -420 Descending Chicago TRACON
08:02PM 42.0917 -87.7958 78° East 284 327 6,600 -1,140 Descending Chicago Center
08:03PM 42.0911 -87.6925 90° East 278 320 5,100 -1,260 Descending Chicago Center
08:04PM 42.0911 -87.5964 90° East 270 311 4,000 -540 Descending Chicago Center
08:05PM 42.0842 -87.4819 95° East 272 313 4,000  Level Chicago Center
08:06PM 42.0194 -87.4694 172° South 257 296 4,000  Level Chicago Center
08:07PM 42.0022 -87.5450 253° West 227 261 4,000  Level Chicago Center
08:08PM 42.0011 -87.6158 269° West 205 236 4,000  Level Chicago Center
08:09PM 42.0039 -87.6831 273° West 191 220 4,000 -540 Level Chicago Center
08:10PM 42.0028 -87.7533 269° West 189 217 2,900 -1,080 Descending Chicago Center